Kyoto Maru — JD3149 — position and weather

sailwx.info

Track history (hours):
 
Tides and Currents Weather Stations Pressure Air Temp Water Temp Dewpoint Dewpoint Depression Visibility Wind Speed Wind Dir Waves Ship Positions

Kyoto Maru

Last reported at 2014-Aug-30 19:34 UTC. Time now 2014-Aug-30 20:35 UTC.
Position N 35°27' E 139°38'.

Length 34 m; draft 3.8 m.

Type: Tug. MMSI: 431002219.

Date/timePositionNaut miles runAvg speedWind from/ knotsBaromVisibWave heightAir tempDewpointWater temp
2014-Aug-30 19:34N 35°27' E 139°38'0 0.0
2014-Aug-30 18:34N 35°27' E 139°38'0 0.0
2014-Aug-30 17:34N 35°27' E 139°38'0 0.0
2014-Aug-30 16:34N 35°27' E 139°38'0 0.0
2014-Aug-30 15:34N 35°27' E 139°38'0 0.0
2014-Aug-30 14:33N 35°27' E 139°38'0 0.0
2014-Aug-30 13:34N 35°27' E 139°38'0 0.0
2014-Aug-30 12:34N 35°27' E 139°38'0 0.0
2014-Aug-30 11:34N 35°27' E 139°38'0 0.0
2014-Aug-30 10:34N 35°27' E 139°38'0 0.0
2014-Aug-30 09:34N 35°27' E 139°38'0 0.0
2014-Aug-30 08:33N 35°27' E 139°38'0 0.0
2014-Aug-30 07:34N 35°27' E 139°38'2 1.6
2014-Aug-30 06:34N 35°28' E 139°40'0 0.0
2014-Aug-30 05:33N 35°28' E 139°40'0 0.0
2014-Aug-30 04:34N 35°28' E 139°40'0 0.0
2014-Aug-30 03:33N 35°28' E 139°40'0 0.0
2014-Aug-30 02:33N 35°28' E 139°40'0 0.0
2014-Aug-30 01:33N 35°28' E 139°40'0 0.0
2014-Aug-30 00:34N 35°28' E 139°40'1 1.2
2014-Aug-29 23:34N 35°28' E 139°42'2 1.9
2014-Aug-29 22:34N 35°27' E 139°43'2 2.3
2014-Aug-29 21:33N 35°27' E 139°41'2 1.8
2014-Aug-29 20:34N 35°27' E 139°38'0 0.0
2014-Aug-29 19:34N 35°27' E 139°38'0 0.0
2014-Aug-29 18:33N 35°27' E 139°38'0 0.0
2014-Aug-29 17:33N 35°27' E 139°38'0 0.0
2014-Aug-29 16:33N 35°27' E 139°38'0 0.0
2014-Aug-29 15:34N 35°27' E 139°38'0 0.0
2014-Aug-29 14:33N 35°27' E 139°38'0 0.0
2014-Aug-29 13:34N 35°27' E 139°38'0 0.0
2014-Aug-29 12:34N 35°27' E 139°38'0 0.0
2014-Aug-29 11:34N 35°27' E 139°38'0 0.0
2014-Aug-29 10:34N 35°27' E 139°38'0 0.0
2014-Aug-29 09:33N 35°27' E 139°38'0 0.0
2014-Aug-29 08:34N 35°27' E 139°38'0 0.0
2014-Aug-29 07:34N 35°27' E 139°38'0 0.0
2014-Aug-29 06:34N 35°27' E 139°38'3 3.0
2014-Aug-29 05:34N 35°27' E 139°42'8 8.3
2014-Aug-29 04:33N 35°30' E 139°52'5 5.5
2014-Aug-29 03:34N 35°28' E 139°58'1 1.1
2014-Aug-29 02:34N 35°28' E 139°57'0 0.0
2014-Aug-29 01:34N 35°28' E 139°57'2 2.4
2014-Aug-29 00:34N 35°28' E 139°54'8 7.8
2014-Aug-28 23:33N 35°27' E 139°44'2 2.2
2014-Aug-28 22:33N 35°27' E 139°42'2 2.3
2014-Aug-28 21:33N 35°27' E 139°44'3 3.0
2014-Aug-28 20:33N 35°27' E 139°41'2 2.1
2014-Aug-28 19:34N 35°27' E 139°38'0 0.0
2014-Aug-28 18:34N 35°27' E 139°38'0 0.0
2014-Aug-28 17:34N 35°27' E 139°38'0 0.0
2014-Aug-28 16:34N 35°27' E 139°38'0 0.0
2014-Aug-28 15:34N 35°27' E 139°38'0 0.0
2014-Aug-28 14:34N 35°27' E 139°38'0 0.0
2014-Aug-28 13:34N 35°27' E 139°38'0 0.0
2014-Aug-28 12:33N 35°27' E 139°38'0 0.0
2014-Aug-28 11:34N 35°27' E 139°38'0 0.0
2014-Aug-28 10:34N 35°27' E 139°38'0 0.0
2014-Aug-28 09:33N 35°27' E 139°38'0 0.0
2014-Aug-28 08:34N 35°27' E 139°38'0 0.0
2014-Aug-28 07:34N 35°27' E 139°38'2 1.6
2014-Aug-28 06:34N 35°28' E 139°40'0 0.0
2014-Aug-28 05:34N 35°28' E 139°40'0 0.0
2014-Aug-28 04:33N 35°28' E 139°40'0 0.0
2014-Aug-28 03:33N 35°28' E 139°40'0 0.0
2014-Aug-28 02:33N 35°28' E 139°40'0 0.0
2014-Aug-28 01:33N 35°28' E 139°40'0 0.0
2014-Aug-28 00:34N 35°28' E 139°40'2 2.5
2014-Aug-27 23:34N 35°25' E 139°42'4 4.1
2014-Aug-27 22:34N 35°24' E 139°37'3 2.7
2014-Aug-27 21:33N 35°23' E 139°41'5 4.6
2014-Aug-27 20:33N 35°27' E 139°39'0 0.0
2014-Aug-27 19:34N 35°27' E 139°39'0 0.0
2014-Aug-27 18:33N 35°27' E 139°39'0 0.0
2014-Aug-27 17:34N 35°27' E 139°39'0 0.0
2014-Aug-27 16:33N 35°27' E 139°39'0 0.0
2014-Aug-27 15:34N 35°27' E 139°39'0 0.0
2014-Aug-27 14:34N 35°27' E 139°39'0 0.0
2014-Aug-27 13:34N 35°27' E 139°39'0 0.0
2014-Aug-27 12:34N 35°27' E 139°39'0 0.0
2014-Aug-27 11:34N 35°27' E 139°39'0 0.1
2014-Aug-27 10:34N 35°27' E 139°38'3 3.3
2014-Aug-27 09:34N 35°27' E 139°42'1 0.8
2014-Aug-27 08:33N 35°26' E 139°42'2 2.1
2014-Aug-27 07:33N 35°27' E 139°41'1 0.5
2014-Aug-27 06:34N 35°28' E 139°41'1 1.0
2014-Aug-27 05:33N 35°27' E 139°42'4 4.5
2014-Aug-27 04:33N 35°29' E 139°47'0 0.0
2014-Aug-27 03:33N 35°29' E 139°47'0 0.2
2014-Aug-27 02:34N 35°29' E 139°47'1 1.3
2014-Aug-27 01:33N 35°28' E 139°47'4 3.6
2014-Aug-27 00:34N 35°27' E 139°42'0 0.0
2014-Aug-26 23:34N 35°27' E 139°42'1 1.3
2014-Aug-26 22:34N 35°28' E 139°41'1 1.2
2014-Aug-26 21:34N 35°28' E 139°42'2 1.6
2014-Aug-26 20:34N 35°27' E 139°41'2 1.7
2014-Aug-26 19:34N 35°27' E 139°38'0 0.0
2014-Aug-26 18:33N 35°27' E 139°38'0 0.0
2014-Aug-26 17:34N 35°27' E 139°38'0 0.0
2014-Aug-26 16:34N 35°27' E 139°38'0 0.0
2014-Aug-26 15:34N 35°27' E 139°38'0 0.0
2014-Aug-26 14:34N 35°27' E 139°38'0 0.0
2014-Aug-26 13:33N 35°27' E 139°38'0 0.0
2014-Aug-26 12:34N 35°27' E 139°38'0 0.0
2014-Aug-26 11:34N 35°27' E 139°38'0 0.0
2014-Aug-26 10:33N 35°27' E 139°38'0 0.0
2014-Aug-26 09:34N 35°27' E 139°38'0 0.0
2014-Aug-26 08:34N 35°27' E 139°38'0 0.0
2014-Aug-26 07:33N 35°27' E 139°38'2 2.1
2014-Aug-26 06:34N 35°27' E 139°41'2 2.1
2014-Aug-26 05:34N 35°27' E 139°38'0 0.0
2014-Aug-26 04:34N 35°27' E 139°38'0 0.0
2014-Aug-26 03:33N 35°27' E 139°38'0 0.0
2014-Aug-26 02:34N 35°27' E 139°38'0 0.0
2014-Aug-26 01:34N 35°27' E 139°38'0 0.1
2014-Aug-26 00:34N 35°27' E 139°38'2 1.7
2014-Aug-25 23:34N 35°28' E 139°40'2 2.4
2014-Aug-25 22:33N 35°25' E 139°41'1 0.9
2014-Aug-25 21:33N 35°25' E 139°42'3 3.5
2014-Aug-25 20:33N 35°27' E 139°38'0 0.0
2014-Aug-25 19:34N 35°27' E 139°38'0 0.0
2014-Aug-25 18:33N 35°27' E 139°38'0 0.0
2014-Aug-25 17:34N 35°27' E 139°38'0 0.0
2014-Aug-25 16:33N 35°27' E 139°38'0 0.0
2014-Aug-25 15:34N 35°27' E 139°38'0 0.0
2014-Aug-25 14:34N 35°27' E 139°38'0 0.0
2014-Aug-25 13:34N 35°27' E 139°38'0 0.0
2014-Aug-25 12:34N 35°27' E 139°38'0 0.0
2014-Aug-25 11:34N 35°27' E 139°38'0 0.0
2014-Aug-25 10:34N 35°27' E 139°38'0 0.0
2014-Aug-25 09:34N 35°27' E 139°38'0 0.1
2014-Aug-25 08:33N 35°27' E 139°38'2 2.2
2014-Aug-25 07:34N 35°28' E 139°41'1 0.7
2014-Aug-25 06:34N 35°28' E 139°40'1 1.0
2014-Aug-25 05:33N 35°27' E 139°41'0 0.4
2014-Aug-25 04:34N 35°26' E 139°41'1 1.0
2014-Aug-25 03:33N 35°27' E 139°42'0 0.0
2014-Aug-25 02:33N 35°27' E 139°42'0 0.0
2014-Aug-25 01:34N 35°27' E 139°42'0 0.0
2014-Aug-25 00:34N 35°27' E 139°42'1 1.1
2014-Aug-24 23:34N 35°27' E 139°43'4 3.7
2014-Aug-24 22:33N 35°30' E 139°47'6 5.8
2014-Aug-24 21:34N 35°27' E 139°40'2 1.5
2014-Aug-24 20:33N 35°27' E 139°39'0 0.0
2014-Aug-24 19:34N 35°27' E 139°39'0 0.0
2014-Aug-24 18:34N 35°27' E 139°39'0 0.0
2014-Aug-24 17:34N 35°27' E 139°39'0 0.0
2014-Aug-24 16:34N 35°27' E 139°39'0 0.0
2014-Aug-24 15:33N 35°27' E 139°39'0 0.0
2014-Aug-24 14:33N 35°27' E 139°39'0 0.0
2014-Aug-24 13:33N 35°27' E 139°39'0 0.0
2014-Aug-24 12:34N 35°27' E 139°39'0 0.0
2014-Aug-24 11:33N 35°27' E 139°39'0 0.0
2014-Aug-24 10:34N 35°27' E 139°39'0 0.0
2014-Aug-24 09:34N 35°27' E 139°39'0 0.1
2014-Aug-24 08:34N 35°27' E 139°38'2 1.9
2014-Aug-24 07:34N 35°28' E 139°41'2 1.7
2014-Aug-24 06:34N 35°27' E 139°42'0 0.2
2014-Aug-24 05:33N 35°27' E 139°42'0 0.0
2014-Aug-24 04:34N 35°27' E 139°42'0 0.0
2014-Aug-24 03:33N 35°27' E 139°42'0 0.0
2014-Aug-24 02:34N 35°27' E 139°42'2 2.3
2014-Aug-24 01:33N 35°28' E 139°44'3 3.3
2014-Aug-24 00:34N 35°28' E 139°40'2 1.6
2014-Aug-23 23:33N 35°27' E 139°38'0 0.0
2014-Aug-23 22:34N 35°27' E 139°38'0 0.0
2014-Aug-23 21:33N 35°27' E 139°38'0 0.0
2014-Aug-23 20:34N 35°27' E 139°38'0 0.0
2014-Aug-23 19:34N 35°27' E 139°38'0 0.0
2014-Aug-23 03:33N 35°27' E 139°38'0 0.0
2014-Aug-23 02:34N 35°27' E 139°38'0 0.0
2014-Aug-23 01:34N 35°27' E 139°38'0 0.0
2014-Aug-23 00:34N 35°27' E 139°38'1 0.5
2014-Aug-22 23:33N 35°27' E 139°39'3 2.5
2014-Aug-22 22:34N 35°28' E 139°42'2 2.4
2014-Aug-22 21:34N 35°26' E 139°44'4 4.0
2014-Aug-22 20:34N 35°27' E 139°39'0 0.0
2014-Aug-22 19:34N 35°27' E 139°39'0 0.0
2014-Aug-22 18:34N 35°27' E 139°39'0 0.0
2014-Aug-22 17:34N 35°27' E 139°39'0 0.0
2014-Aug-22 16:33N 35°27' E 139°39'0 0.0
2014-Aug-22 15:34N 35°27' E 139°39'0 0.0
2014-Aug-22 14:33N 35°27' E 139°39'0 0.0
2014-Aug-22 13:34N 35°27' E 139°39'0 0.0
2014-Aug-22 12:33N 35°27' E 139°39'2 2.1
2014-Aug-22 11:33N 35°26' E 139°42'1 1.0
2014-Aug-22 10:33N 35°27' E 139°41'3 2.8
2014-Aug-22 09:34N 35°24' E 139°41'1 0.6
2014-Aug-22 08:34N 35°24' E 139°41'4 4.1
2014-Aug-22 07:34N 35°28' E 139°40'0 0.0
2014-Aug-22 06:34N 35°28' E 139°40'0 0.0
2014-Aug-22 05:34N 35°28' E 139°40'0 0.0
2014-Aug-22 04:33N 35°28' E 139°40'0 0.0
2014-Aug-22 03:34N 35°28' E 139°40'0 0.0
2014-Aug-22 02:34N 35°28' E 139°40'0 0.0
2014-Aug-22 01:33N 35°28' E 139°40'0 0.0
2014-Aug-22 00:33N 35°28' E 139°40'1 1.0
2014-Aug-21 23:34N 35°27' E 139°39'2 1.9
2014-Aug-21 22:33N 35°27' E 139°42'5 4.7
2014-Aug-21 21:34N 35°29' E 139°47'7 7.0
2014-Aug-21 20:34N 35°27' E 139°38'0 0.0
2014-Aug-21 19:34N 35°27' E 139°38'0 0.0
2014-Aug-21 18:34N 35°27' E 139°38'0 0.0
2014-Aug-21 17:34N 35°27' E 139°38'0 0.0
2014-Aug-21 16:34N 35°27' E 139°38'0 0.0
2014-Aug-21 15:34N 35°27' E 139°38'0 0.0
2014-Aug-21 14:34N 35°27' E 139°38'0 0.0
2014-Aug-21 13:33N 35°27' E 139°38'0 0.0
2014-Aug-21 12:33N 35°27' E 139°38'0 0.0
2014-Aug-21 11:34N 35°27' E 139°38'0 0.0
2014-Aug-21 10:33N 35°27' E 139°38'0 0.1
2014-Aug-21 09:33N 35°27' E 139°38'4 3.6
2014-Aug-21 08:34N 35°27' E 139°43'1 0.6
2014-Aug-21 07:34N 35°27' E 139°42'0 0.0
2014-Aug-21 06:33N 35°27' E 139°42'1 1.3
2014-Aug-21 05:34N 35°28' E 139°41'2 2.1
2014-Aug-21 04:34N 35°27' E 139°38'0 0.0
2014-Aug-21 03:34N 35°27' E 139°38'0 0.0
2014-Aug-21 02:34N 35°27' E 139°38'0 0.0
2014-Aug-21 01:34N 35°27' E 139°38'0 0.0
2014-Aug-21 00:34N 35°27' E 139°38'0 0.0
2014-Aug-20 23:34N 35°27' E 139°38'0 0.0
2014-Aug-20 22:34N 35°27' E 139°38'0 0.0
2014-Aug-20 21:33N 35°27' E 139°38'0 0.0
2014-Aug-20 20:33N 35°27' E 139°38'  
Track history (hours):
 
Tides and Currents Weather Stations Pressure Air Temp Water Temp Dewpoint Dewpoint Depression Visibility Wind Speed Wind Dir Waves Ship Positions

Kyoto Maru

Last reported at 2014-Aug-30 19:34 UTC. Time now 2014-Aug-30 20:35 UTC.
Position N 35°27' E 139°38'.

Length 34 m; draft 3.8 m.

Type: Tug. MMSI: 431002219.

Date/timePositionNaut miles runAvg speedWind from/ knotsBaromVisibWave heightAir tempDewpointWater temp
2014-Aug-30 19:34N 35°27' E 139°38'0 0.0
2014-Aug-30 18:34N 35°27' E 139°38'0 0.0
2014-Aug-30 17:34N 35°27' E 139°38'0 0.0
2014-Aug-30 16:34N 35°27' E 139°38'0 0.0
2014-Aug-30 15:34N 35°27' E 139°38'0 0.0
2014-Aug-30 14:33N 35°27' E 139°38'0 0.0
2014-Aug-30 13:34N 35°27' E 139°38'0 0.0
2014-Aug-30 12:34N 35°27' E 139°38'0 0.0
2014-Aug-30 11:34N 35°27' E 139°38'0 0.0
2014-Aug-30 10:34N 35°27' E 139°38'0 0.0
2014-Aug-30 09:34N 35°27' E 139°38'0 0.0
2014-Aug-30 08:33N 35°27' E 139°38'0 0.0
2014-Aug-30 07:34N 35°27' E 139°38'2 1.6
2014-Aug-30 06:34N 35°28' E 139°40'0 0.0
2014-Aug-30 05:33N 35°28' E 139°40'0 0.0
2014-Aug-30 04:34N 35°28' E 139°40'0 0.0
2014-Aug-30 03:33N 35°28' E 139°40'0 0.0
2014-Aug-30 02:33N 35°28' E 139°40'0 0.0
2014-Aug-30 01:33N 35°28' E 139°40'0 0.0
2014-Aug-30 00:34N 35°28' E 139°40'1 1.2
2014-Aug-29 23:34N 35°28' E 139°42'2 1.9
2014-Aug-29 22:34N 35°27' E 139°43'2 2.3
2014-Aug-29 21:33N 35°27' E 139°41'2 1.8
2014-Aug-29 20:34N 35°27' E 139°38'0 0.0
2014-Aug-29 19:34N 35°27' E 139°38'0 0.0
2014-Aug-29 18:33N 35°27' E 139°38'0 0.0
2014-Aug-29 17:33N 35°27' E 139°38'0 0.0
2014-Aug-29 16:33N 35°27' E 139°38'0 0.0
2014-Aug-29 15:34N 35°27' E 139°38'0 0.0
2014-Aug-29 14:33N 35°27' E 139°38'0 0.0
2014-Aug-29 13:34N 35°27' E 139°38'0 0.0
2014-Aug-29 12:34N 35°27' E 139°38'0 0.0
2014-Aug-29 11:34N 35°27' E 139°38'0 0.0
2014-Aug-29 10:34N 35°27' E 139°38'0 0.0
2014-Aug-29 09:33N 35°27' E 139°38'0 0.0
2014-Aug-29 08:34N 35°27' E 139°38'0 0.0
2014-Aug-29 07:34N 35°27' E 139°38'0 0.0
2014-Aug-29 06:34N 35°27' E 139°38'3 3.0
2014-Aug-29 05:34N 35°27' E 139°42'8 8.3
2014-Aug-29 04:33N 35°30' E 139°52'5 5.5
2014-Aug-29 03:34N 35°28' E 139°58'1 1.1
2014-Aug-29 02:34N 35°28' E 139°57'0 0.0
2014-Aug-29 01:34N 35°28' E 139°57'2 2.4
2014-Aug-29 00:34N 35°28' E 139°54'8 7.8
2014-Aug-28 23:33N 35°27' E 139°44'2 2.2
2014-Aug-28 22:33N 35°27' E 139°42'2 2.3
2014-Aug-28 21:33N 35°27' E 139°44'3 3.0
2014-Aug-28 20:33N 35°27' E 139°41'2 2.1
2014-Aug-28 19:34N 35°27' E 139°38'0 0.0
2014-Aug-28 18:34N 35°27' E 139°38'0 0.0
2014-Aug-28 17:34N 35°27' E 139°38'0 0.0
2014-Aug-28 16:34N 35°27' E 139°38'0 0.0
2014-Aug-28 15:34N 35°27' E 139°38'0 0.0
2014-Aug-28 14:34N 35°27' E 139°38'0 0.0
2014-Aug-28 13:34N 35°27' E 139°38'0 0.0
2014-Aug-28 12:33N 35°27' E 139°38'0 0.0
2014-Aug-28 11:34N 35°27' E 139°38'0 0.0
2014-Aug-28 10:34N 35°27' E 139°38'0 0.0
2014-Aug-28 09:33N 35°27' E 139°38'0 0.0
2014-Aug-28 08:34N 35°27' E 139°38'0 0.0
2014-Aug-28 07:34N 35°27' E 139°38'2 1.6
2014-Aug-28 06:34N 35°28' E 139°40'0 0.0
2014-Aug-28 05:34N 35°28' E 139°40'0 0.0
2014-Aug-28 04:33N 35°28' E 139°40'0 0.0
2014-Aug-28 03:33N 35°28' E 139°40'0 0.0
2014-Aug-28 02:33N 35°28' E 139°40'0 0.0
2014-Aug-28 01:33N 35°28' E 139°40'0 0.0
2014-Aug-28 00:34N 35°28' E 139°40'2 2.5
2014-Aug-27 23:34N 35°25' E 139°42'4 4.1
2014-Aug-27 22:34N 35°24' E 139°37'3 2.7
2014-Aug-27 21:33N 35°23' E 139°41'5 4.6
2014-Aug-27 20:33N 35°27' E 139°39'0 0.0
2014-Aug-27 19:34N 35°27' E 139°39'0 0.0
2014-Aug-27 18:33N 35°27' E 139°39'0 0.0
2014-Aug-27 17:34N 35°27' E 139°39'0 0.0
2014-Aug-27 16:33N 35°27' E 139°39'0 0.0
2014-Aug-27 15:34N 35°27' E 139°39'0 0.0
2014-Aug-27 14:34N 35°27' E 139°39'0 0.0
2014-Aug-27 13:34N 35°27' E 139°39'0 0.0
2014-Aug-27 12:34N 35°27' E 139°39'0 0.0
2014-Aug-27 11:34N 35°27' E 139°39'0 0.1
2014-Aug-27 10:34N 35°27' E 139°38'3 3.3
2014-Aug-27 09:34N 35°27' E 139°42'1 0.8
2014-Aug-27 08:33N 35°26' E 139°42'2 2.1
2014-Aug-27 07:33N 35°27' E 139°41'1 0.5
2014-Aug-27 06:34N 35°28' E 139°41'1 1.0
2014-Aug-27 05:33N 35°27' E 139°42'4 4.5
2014-Aug-27 04:33N 35°29' E 139°47'0 0.0
2014-Aug-27 03:33N 35°29' E 139°47'0 0.2
2014-Aug-27 02:34N 35°29' E 139°47'1 1.3
2014-Aug-27 01:33N 35°28' E 139°47'4 3.6
2014-Aug-27 00:34N 35°27' E 139°42'0 0.0
2014-Aug-26 23:34N 35°27' E 139°42'1 1.3
2014-Aug-26 22:34N 35°28' E 139°41'1 1.2
2014-Aug-26 21:34N 35°28' E 139°42'2 1.6
2014-Aug-26 20:34N 35°27' E 139°41'2 1.7
2014-Aug-26 19:34N 35°27' E 139°38'0 0.0
2014-Aug-26 18:33N 35°27' E 139°38'0 0.0
2014-Aug-26 17:34N 35°27' E 139°38'0 0.0
2014-Aug-26 16:34N 35°27' E 139°38'0 0.0
2014-Aug-26 15:34N 35°27' E 139°38'0 0.0
2014-Aug-26 14:34N 35°27' E 139°38'0 0.0
2014-Aug-26 13:33N 35°27' E 139°38'0 0.0
2014-Aug-26 12:34N 35°27' E 139°38'0 0.0
2014-Aug-26 11:34N 35°27' E 139°38'0 0.0
2014-Aug-26 10:33N 35°27' E 139°38'0 0.0
2014-Aug-26 09:34N 35°27' E 139°38'0 0.0
2014-Aug-26 08:34N 35°27' E 139°38'0 0.0
2014-Aug-26 07:33N 35°27' E 139°38'2 2.1
2014-Aug-26 06:34N 35°27' E 139°41'2 2.1
2014-Aug-26 05:34N 35°27' E 139°38'0 0.0
2014-Aug-26 04:34N 35°27' E 139°38'0 0.0
2014-Aug-26 03:33N 35°27' E 139°38'0 0.0
2014-Aug-26 02:34N 35°27' E 139°38'0 0.0
2014-Aug-26 01:34N 35°27' E 139°38'0 0.1
2014-Aug-26 00:34N 35°27' E 139°38'2 1.7
2014-Aug-25 23:34N 35°28' E 139°40'2 2.4
2014-Aug-25 22:33N 35°25' E 139°41'1 0.9
2014-Aug-25 21:33N 35°25' E 139°42'3 3.5
2014-Aug-25 20:33N 35°27' E 139°38'0 0.0
2014-Aug-25 19:34N 35°27' E 139°38'0 0.0
2014-Aug-25 18:33N 35°27' E 139°38'0 0.0
2014-Aug-25 17:34N 35°27' E 139°38'0 0.0
2014-Aug-25 16:33N 35°27' E 139°38'0 0.0
2014-Aug-25 15:34N 35°27' E 139°38'0 0.0
2014-Aug-25 14:34N 35°27' E 139°38'0 0.0
2014-Aug-25 13:34N 35°27' E 139°38'0 0.0
2014-Aug-25 12:34N 35°27' E 139°38'0 0.0
2014-Aug-25 11:34N 35°27' E 139°38'0 0.0
2014-Aug-25 10:34N 35°27' E 139°38'0 0.0
2014-Aug-25 09:34N 35°27' E 139°38'0 0.1
2014-Aug-25 08:33N 35°27' E 139°38'2 2.2
2014-Aug-25 07:34N 35°28' E 139°41'1 0.7
2014-Aug-25 06:34N 35°28' E 139°40'1 1.0
2014-Aug-25 05:33N 35°27' E 139°41'0 0.4
2014-Aug-25 04:34N 35°26' E 139°41'1 1.0
2014-Aug-25 03:33N 35°27' E 139°42'0 0.0
2014-Aug-25 02:33N 35°27' E 139°42'0 0.0
2014-Aug-25 01:34N 35°27' E 139°42'0 0.0
2014-Aug-25 00:34N 35°27' E 139°42'1 1.1
2014-Aug-24 23:34N 35°27' E 139°43'4 3.7
2014-Aug-24 22:33N 35°30' E 139°47'6 5.8
2014-Aug-24 21:34N 35°27' E 139°40'2 1.5
2014-Aug-24 20:33N 35°27' E 139°39'0 0.0
2014-Aug-24 19:34N 35°27' E 139°39'0 0.0
2014-Aug-24 18:34N 35°27' E 139°39'0 0.0
2014-Aug-24 17:34N 35°27' E 139°39'0 0.0
2014-Aug-24 16:34N 35°27' E 139°39'0 0.0
2014-Aug-24 15:33N 35°27' E 139°39'0 0.0
2014-Aug-24 14:33N 35°27' E 139°39'0 0.0
2014-Aug-24 13:33N 35°27' E 139°39'0 0.0
2014-Aug-24 12:34N 35°27' E 139°39'0 0.0
2014-Aug-24 11:33N 35°27' E 139°39'0 0.0
2014-Aug-24 10:34N 35°27' E 139°39'0 0.0
2014-Aug-24 09:34N 35°27' E 139°39'0 0.1
2014-Aug-24 08:34N 35°27' E 139°38'2 1.9
2014-Aug-24 07:34N 35°28' E 139°41'2 1.7
2014-Aug-24 06:34N 35°27' E 139°42'0 0.2
2014-Aug-24 05:33N 35°27' E 139°42'0 0.0
2014-Aug-24 04:34N 35°27' E 139°42'0 0.0
2014-Aug-24 03:33N 35°27' E 139°42'0 0.0
2014-Aug-24 02:34N 35°27' E 139°42'2 2.3
2014-Aug-24 01:33N 35°28' E 139°44'3 3.3
2014-Aug-24 00:34N 35°28' E 139°40'2 1.6
2014-Aug-23 23:33N 35°27' E 139°38'0 0.0
2014-Aug-23 22:34N 35°27' E 139°38'0 0.0
2014-Aug-23 21:33N 35°27' E 139°38'0 0.0
2014-Aug-23 20:34N 35°27' E 139°38'0 0.0
2014-Aug-23 19:34N 35°27' E 139°38'0 0.0
2014-Aug-23 03:33N 35°27' E 139°38'0 0.0
2014-Aug-23 02:34N 35°27' E 139°38'0 0.0
2014-Aug-23 01:34N 35°27' E 139°38'0 0.0
2014-Aug-23 00:34N 35°27' E 139°38'1 0.5
2014-Aug-22 23:33N 35°27' E 139°39'3 2.5
2014-Aug-22 22:34N 35°28' E 139°42'2 2.4
2014-Aug-22 21:34N 35°26' E 139°44'4 4.0
2014-Aug-22 20:34N 35°27' E 139°39'0 0.0
2014-Aug-22 19:34N 35°27' E 139°39'0 0.0
2014-Aug-22 18:34N 35°27' E 139°39'0 0.0
2014-Aug-22 17:34N 35°27' E 139°39'0 0.0
2014-Aug-22 16:33N 35°27' E 139°39'0 0.0
2014-Aug-22 15:34N 35°27' E 139°39'0 0.0
2014-Aug-22 14:33N 35°27' E 139°39'0 0.0
2014-Aug-22 13:34N 35°27' E 139°39'0 0.0
2014-Aug-22 12:33N 35°27' E 139°39'2 2.1
2014-Aug-22 11:33N 35°26' E 139°42'1 1.0
2014-Aug-22 10:33N 35°27' E 139°41'3 2.8
2014-Aug-22 09:34N 35°24' E 139°41'1 0.6
2014-Aug-22 08:34N 35°24' E 139°41'4 4.1
2014-Aug-22 07:34N 35°28' E 139°40'0 0.0
2014-Aug-22 06:34N 35°28' E 139°40'0 0.0
2014-Aug-22 05:34N 35°28' E 139°40'0 0.0
2014-Aug-22 04:33N 35°28' E 139°40'0 0.0
2014-Aug-22 03:34N 35°28' E 139°40'0 0.0
2014-Aug-22 02:34N 35°28' E 139°40'0 0.0
2014-Aug-22 01:33N 35°28' E 139°40'0 0.0
2014-Aug-22 00:33N 35°28' E 139°40'1 1.0
2014-Aug-21 23:34N 35°27' E 139°39'2 1.9
2014-Aug-21 22:33N 35°27' E 139°42'5 4.7
2014-Aug-21 21:34N 35°29' E 139°47'7 7.0
2014-Aug-21 20:34N 35°27' E 139°38'0 0.0
2014-Aug-21 19:34N 35°27' E 139°38'0 0.0
2014-Aug-21 18:34N 35°27' E 139°38'0 0.0
2014-Aug-21 17:34N 35°27' E 139°38'0 0.0
2014-Aug-21 16:34N 35°27' E 139°38'0 0.0
2014-Aug-21 15:34N 35°27' E 139°38'0 0.0
2014-Aug-21 14:34N 35°27' E 139°38'0 0.0
2014-Aug-21 13:33N 35°27' E 139°38'0 0.0
2014-Aug-21 12:33N 35°27' E 139°38'0 0.0
2014-Aug-21 11:34N 35°27' E 139°38'0 0.0
2014-Aug-21 10:33N 35°27' E 139°38'0 0.1
2014-Aug-21 09:33N 35°27' E 139°38'4 3.6
2014-Aug-21 08:34N 35°27' E 139°43'1 0.6
2014-Aug-21 07:34N 35°27' E 139°42'0 0.0
2014-Aug-21 06:33N 35°27' E 139°42'1 1.3
2014-Aug-21 05:34N 35°28' E 139°41'2 2.1
2014-Aug-21 04:34N 35°27' E 139°38'0 0.0
2014-Aug-21 03:34N 35°27' E 139°38'0 0.0
2014-Aug-21 02:34N 35°27' E 139°38'0 0.0
2014-Aug-21 01:34N 35°27' E 139°38'0 0.0
2014-Aug-21 00:34N 35°27' E 139°38'0 0.0
2014-Aug-20 23:34N 35°27' E 139°38'0 0.0
2014-Aug-20 22:34N 35°27' E 139°38'0 0.0
2014-Aug-20 21:33N 35°27' E 139°38'0 0.0
2014-Aug-20 20:33N 35°27' E 139°38'  

Dump ship's entire track history